createdAt,value
2023-03-01T00:01:40.312Z,95.70
2023-03-01T00:04:07.137Z,95.76
2023-03-01T00:06:33.990Z,95.68
2023-03-01T00:09:00.771Z,95.97
2023-03-01T00:11:29.983Z,95.97
2023-03-01T00:13:59.864Z,95.80
2023-03-01T00:16:32.976Z,96.04
2023-03-01T00:19:09.341Z,96.21
2023-03-01T00:21:36.303Z,96.27
2023-03-01T00:24:03.642Z,96.44
2023-03-01T00:26:31.084Z,96.43
2023-03-01T00:28:59.491Z,96.36
2023-03-01T00:31:30.182Z,96.08
2023-03-01T00:33:58.802Z,96.36
2023-03-01T00:36:33.376Z,96.17
2023-03-01T00:39:02.964Z,96.34
2023-03-01T00:41:29.719Z,96.37
2023-03-01T00:43:58.948Z,96.39
2023-03-01T00:46:27.933Z,96.43
2023-03-01T00:48:55.135Z,96.48
2023-03-01T00:51:27.550Z,96.44
2023-03-01T00:53:57.693Z,96.54
2023-03-01T00:56:30.310Z,96.58
2023-03-01T00:59:03.081Z,96.73
2023-03-01T01:01:31.580Z,96.49
2023-03-01T01:04:07.951Z,96.50
2023-03-01T01:06:39.152Z,96.71
2023-03-01T01:09:07.802Z,97.14
2023-03-01T01:11:36.410Z,96.99
2023-03-01T01:14:03.924Z,97.26
2023-03-01T01:16:31.036Z,97.26
2023-03-01T01:18:58.731Z,97.33
2023-03-01T01:21:27.148Z,97.42
2023-03-01T01:23:54.291Z,97.50
2023-03-01T01:26:22.391Z,97.25
2023-03-01T01:28:49.428Z,97.39
2023-03-01T01:31:16.784Z,97.33
2023-03-01T01:33:45.317Z,97.31
2023-03-01T01:36:12.451Z,97.24
2023-03-01T01:38:40.242Z,97.29
2023-03-01T01:41:08.354Z,97.26
2023-03-01T01:43:38.447Z,97.13
2023-03-01T01:46:32.984Z,97.31
2023-03-01T01:49:28.005Z,97.21
2023-03-01T01:52:08.202Z,97.13
2023-03-01T01:54:48.033Z,97.27
2023-03-01T01:57:22.988Z,96.91
2023-03-01T01:59:54.547Z,96.87
2023-03-01T02:02:21.822Z,96.78
2023-03-01T02:04:56.821Z,96.32
2023-03-01T02:07:25.558Z,95.92
2023-03-01T02:09:53.863Z,95.92
2023-03-01T02:12:24.454Z,95.78
2023-03-01T02:14:51.205Z,95.51
2023-03-01T02:17:19.404Z,95.58
2023-03-01T02:20:18.897Z,95.33
2023-03-01T02:22:47.546Z,95.40
2023-03-01T02:25:20.306Z,95.27
2023-03-01T02:28:06.994Z,95.27
2023-03-01T02:30:36.898Z,95.27
2023-03-01T02:33:04.958Z,95.09
2023-03-01T02:35:36.216Z,95.00
2023-03-01T02:38:04.707Z,95.09
2023-03-01T02:40:35.811Z,94.99
2023-03-01T02:43:05.329Z,94.75
2023-03-01T02:45:31.902Z,94.81
2023-03-01T02:47:58.803Z,94.68
2023-03-01T02:50:31.475Z,94.26
2023-03-01T02:53:30.089Z,94.22
2023-03-01T02:55:56.830Z,94.20
2023-03-01T02:58:26.789Z,94.21
2023-03-01T03:00:53.625Z,93.83
2023-03-01T03:03:22.356Z,93.90
2023-03-01T03:05:55.984Z,93.58
2023-03-01T03:08:25.601Z,93.77
2023-03-01T03:10:52.333Z,93.78
2023-03-01T03:13:20.216Z,93.75
2023-03-01T03:15:46.982Z,93.76
2023-03-01T03:18:17.931Z,94.02
2023-03-01T03:20:45.686Z,93.73
2023-03-01T03:23:13.516Z,93.79
2023-03-01T03:25:40.477Z,93.74
2023-03-01T03:28:11.034Z,94.05
2023-03-01T03:30:40.288Z,94.07
2023-03-01T03:33:16.061Z,94.05
2023-03-01T03:35:47.847Z,94.03
2023-03-01T03:38:17.116Z,94.24
2023-03-01T03:40:48.893Z,94.30
2023-03-01T03:43:20.093Z,94.42
2023-03-01T03:45:48.002Z,94.33
2023-03-01T03:48:18.759Z,94.35
2023-03-01T03:50:56.896Z,94.27
2023-03-01T03:53:25.222Z,94.49
2023-03-01T03:55:52.760Z,94.55
2023-03-01T03:58:24.142Z,94.69
2023-03-01T04:00:58.300Z,94.77
2023-03-01T04:03:27.057Z,94.89
2023-03-01T04:05:54.005Z,94.96
2023-03-01T04:08:23.060Z,95.12
2023-03-01T04:10:52.352Z,95.21
2023-03-01T04:13:21.929Z,95.31
2023-03-01T04:15:56.108Z,95.37
2023-03-01T04:18:38.582Z,95.25
2023-03-01T04:21:05.440Z,95.43
2023-03-01T04:23:32.110Z,95.42
2023-03-01T04:25:59.865Z,95.21
2023-03-01T04:28:47.158Z,95.18
2023-03-01T04:31:19.466Z,95.08
2023-03-01T04:33:47.850Z,95.07
2023-03-01T04:36:16.949Z,95.24
2023-03-01T04:38:48.455Z,94.96
2023-03-01T04:41:19.552Z,95.01
2023-03-01T04:43:46.632Z,94.98
2023-03-01T04:46:20.813Z,95.00
2023-03-01T04:48:48.524Z,95.03
2023-03-01T04:51:19.693Z,94.84
2023-03-01T04:53:46.348Z,95.12
2023-03-01T04:56:18.814Z,95.22
2023-03-01T04:58:45.934Z,94.78
2023-03-01T05:01:21.900Z,94.75
2023-03-01T05:03:53.128Z,94.78
2023-03-01T05:06:21.491Z,94.54
2023-03-01T05:08:48.605Z,94.58
2023-03-01T05:11:15.237Z,94.76
2023-03-01T05:13:44.402Z,94.59
2023-03-01T05:16:12.710Z,94.82
2023-03-01T05:18:40.584Z,94.78
2023-03-01T05:21:09.817Z,94.83
2023-03-01T05:23:37.298Z,94.90
2023-03-01T05:26:11.330Z,94.89
2023-03-01T05:28:41.355Z,94.85
2023-03-01T05:31:10.741Z,94.85
2023-03-01T05:33:39.159Z,95.00
2023-03-01T05:36:07.234Z,95.05
2023-03-01T05:38:36.808Z,94.87
2023-03-01T05:41:03.556Z,94.93
2023-03-01T05:43:35.478Z,94.66
2023-03-01T05:46:02.621Z,94.31
2023-03-01T05:48:29.326Z,94.27
2023-03-01T05:50:58.959Z,94.29
2023-03-01T05:53:25.549Z,94.19
2023-03-01T05:55:52.413Z,94.15
2023-03-01T05:58:22.756Z,94.05
2023-03-01T06:00:49.989Z,94.25
2023-03-01T06:03:18.315Z,94.01
2023-03-01T06:05:45.553Z,93.84
2023-03-01T06:08:12.796Z,93.76
2023-03-01T06:10:40.052Z,93.73
2023-03-01T06:13:06.832Z,93.72
2023-03-01T06:15:33.856Z,93.70
2023-03-01T06:18:03.334Z,93.66
2023-03-01T06:20:30.419Z,93.38
2023-03-01T06:22:57.674Z,93.45
2023-03-01T06:25:27.117Z,93.36
2023-03-01T06:27:53.886Z,93.29
2023-03-01T06:30:22.914Z,93.44
2023-03-01T06:32:50.190Z,93.33
2023-03-01T06:35:23.876Z,93.17
2023-03-01T06:37:50.544Z,93.36
2023-03-01T06:40:17.668Z,93.30
2023-03-01T06:42:50.008Z,93.35
2023-03-01T06:45:18.252Z,93.34
2023-03-01T06:47:44.930Z,93.18
2023-03-01T06:50:12.202Z,93.19
2023-03-01T06:52:39.769Z,92.83
2023-03-01T06:55:07.315Z,92.57
2023-03-01T06:57:34.027Z,92.25
2023-03-01T07:00:00.661Z,92.09
2023-03-01T07:02:27.382Z,92.02
2023-03-01T07:04:56.194Z,91.79
2023-03-01T07:07:25.436Z,91.68
2023-03-01T07:09:54.290Z,91.48
2023-03-01T07:12:20.934Z,91.26
2023-03-01T07:14:47.518Z,91.10
2023-03-01T07:17:16.440Z,91.08
2023-03-01T07:19:43.172Z,90.94
2023-03-01T07:22:11.658Z,90.61
2023-03-01T07:24:40.974Z,90.30
2023-03-01T07:27:07.737Z,90.08
2023-03-01T07:29:40.404Z,89.79
2023-03-01T07:32:07.777Z,89.94
2023-03-01T07:34:37.058Z,89.57
2023-03-01T07:37:03.687Z,89.41
2023-03-01T07:39:30.949Z,89.29
2023-03-01T07:41:58.120Z,89.07
2023-03-01T07:44:34.619Z,88.88
2023-03-01T07:47:01.730Z,88.54
2023-03-01T07:49:28.415Z,88.01
2023-03-01T07:51:55.265Z,87.58
2023-03-01T07:54:21.956Z,87.51
2023-03-01T07:56:48.873Z,87.40
2023-03-01T07:59:15.631Z,87.61
2023-03-01T08:01:42.486Z,87.23
2023-03-01T08:04:12.071Z,86.81
2023-03-01T08:06:47.952Z,86.91
2023-03-01T08:09:14.574Z,86.65
2023-03-01T08:11:41.224Z,86.25
2023-03-01T08:14:07.847Z,85.71
2023-03-01T08:16:40.481Z,85.34
2023-03-01T08:19:11.796Z,84.88
2023-03-01T08:21:41.591Z,84.84
2023-03-01T08:24:09.041Z,84.51
2023-03-01T08:26:35.820Z,84.37
2023-03-01T08:29:02.619Z,84.18
2023-03-01T08:31:38.625Z,84.14
2023-03-01T08:34:21.453Z,83.89
2023-03-01T08:36:54.168Z,83.77
2023-03-01T08:39:21.437Z,83.51
2023-03-01T08:41:54.473Z,83.24
2023-03-01T08:44:22.057Z,83.09
2023-03-01T08:49:35.730Z,82.69
2023-03-01T08:52:08.599Z,82.38
2023-03-01T08:54:35.108Z,81.49
2023-03-01T08:57:04.339Z,81.32
2023-03-01T08:59:31.096Z,81.41
2023-03-01T09:01:57.608Z,81.31
2023-03-01T09:04:29.738Z,81.21
2023-03-01T09:06:56.373Z,80.88
2023-03-01T09:09:23.135Z,80.91
2023-03-01T09:11:54.825Z,81.42
2023-03-01T09:14:21.345Z,81.71
2023-03-01T09:16:47.971Z,82.03
2023-03-01T09:19:15.042Z,82.00
2023-03-01T09:21:41.642Z,82.07
2023-03-01T09:24:14.216Z,82.39
2023-03-01T09:26:40.763Z,82.59
2023-03-01T09:29:07.244Z,82.40
2023-03-01T09:31:33.801Z,82.36
2023-03-01T09:34:00.248Z,82.30
2023-03-01T09:36:26.913Z,82.04
2023-03-01T09:39:01.410Z,81.84
2023-03-01T09:41:39.703Z,81.76
2023-03-01T09:44:12.028Z,81.33
2023-03-01T09:46:42.751Z,80.95
2023-03-01T09:49:20.396Z,80.35
2023-03-01T09:51:54.989Z,79.96
2023-03-01T09:54:21.543Z,79.73
2023-03-01T09:56:54.490Z,78.76
2023-03-01T09:59:27.080Z,78.18
2023-03-01T10:01:56.475Z,76.93
2023-03-01T10:04:47.642Z,76.25
2023-03-01T10:07:33.333Z,75.36
2023-03-01T10:10:05.629Z,74.54
2023-03-01T10:12:47.226Z,74.44
2023-03-01T10:15:13.971Z,73.92
2023-03-01T10:17:46.220Z,73.12
2023-03-01T10:20:19.958Z,72.90
2023-03-01T10:22:53.311Z,72.72
2023-03-01T10:25:46.291Z,70.89
2023-03-01T10:28:18.651Z,70.70
2023-03-01T10:30:46.129Z,70.52
2023-03-01T10:33:26.266Z,70.52
2023-03-01T10:35:53.212Z,69.49
2023-03-01T10:38:24.498Z,69.83
2023-03-01T10:41:02.309Z,68.80
2023-03-01T10:43:49.031Z,68.70
2023-03-01T10:46:26.237Z,68.37
2023-03-01T10:49:06.872Z,68.42
2023-03-01T10:51:34.617Z,66.64
2023-03-01T10:54:01.876Z,66.01
2023-03-01T10:56:28.391Z,64.95
2023-03-01T10:59:01.045Z,65.01
2023-03-01T11:01:31.002Z,64.69
2023-03-01T11:04:24.134Z,64.66
2023-03-01T11:06:59.033Z,64.75
2023-03-01T11:09:28.922Z,63.79
2023-03-01T11:11:56.756Z,63.73
2023-03-01T11:14:28.030Z,64.06
2023-03-01T11:17:14.884Z,64.38
2023-03-01T11:19:48.838Z,64.63
2023-03-01T11:22:22.228Z,64.40
2023-03-01T11:24:57.369Z,63.99
2023-03-01T11:27:29.758Z,64.12
2023-03-01T11:30:14.223Z,64.45
2023-03-01T11:32:48.084Z,64.69
2023-03-01T11:35:17.620Z,65.13
2023-03-01T11:37:56.156Z,65.36
2023-03-01T11:40:28.563Z,65.39
2023-03-01T11:43:24.185Z,65.90
2023-03-01T11:46:12.937Z,66.27
2023-03-01T11:49:00.146Z,66.35
2023-03-01T11:51:39.603Z,66.54
2023-03-01T11:54:11.160Z,66.94
2023-03-01T11:57:00.885Z,67.21
2023-03-01T11:59:36.421Z,67.07
2023-03-01T12:02:06.347Z,67.16
2023-03-01T12:04:32.880Z,67.08
2023-03-01T12:06:59.438Z,67.26
2023-03-01T12:09:39.444Z,67.21
2023-03-01T12:12:24.862Z,67.60
2023-03-01T12:15:07.097Z,67.54
2023-03-01T12:17:43.031Z,67.70
2023-03-01T12:20:24.335Z,67.43
2023-03-01T12:22:52.166Z,67.72
2023-03-01T12:25:30.864Z,67.69
2023-03-01T12:28:16.178Z,67.63
2023-03-01T12:30:51.687Z,67.80
2023-03-01T12:33:29.714Z,67.87
2023-03-01T12:36:02.247Z,67.86
2023-03-01T12:38:38.603Z,67.38
2023-03-01T12:41:25.973Z,67.27
2023-03-01T12:43:59.372Z,67.50
2023-03-01T12:46:47.820Z,67.56
2023-03-01T12:49:17.122Z,67.46
2023-03-01T12:51:50.208Z,67.58
2023-03-01T12:54:18.065Z,67.58
2023-03-01T12:56:56.488Z,67.95
2023-03-01T12:59:29.014Z,67.79
2023-03-01T13:02:02.009Z,67.90
2023-03-01T13:04:43.518Z,67.81
2023-03-01T13:07:23.893Z,67.36
2023-03-01T13:09:56.616Z,67.21
2023-03-01T13:12:41.746Z,67.40
2023-03-01T13:15:25.702Z,67.12
2023-03-01T13:17:59.764Z,66.93
2023-03-01T13:20:44.918Z,67.14
2023-03-01T13:23:21.468Z,66.72
2023-03-01T13:26:00.161Z,66.97
2023-03-01T13:28:32.659Z,66.81
2023-03-01T13:30:59.758Z,66.87
2023-03-01T13:33:29.064Z,66.68
2023-03-01T13:35:59.523Z,66.46
2023-03-01T13:38:44.739Z,66.10
2023-03-01T13:41:11.299Z,66.10
2023-03-01T13:43:40.680Z,66.21
2023-03-01T13:46:19.684Z,66.29
2023-03-01T13:48:49.011Z,66.32
2023-03-01T13:51:23.972Z,66.33
2023-03-01T13:53:53.394Z,66.22
2023-03-01T13:56:27.051Z,66.57
2023-03-01T13:58:54.981Z,66.91
2023-03-01T14:01:23.500Z,67.01
2023-03-01T14:03:53.937Z,67.32
2023-03-01T14:06:25.302Z,67.44
2023-03-01T14:08:53.664Z,67.50
2023-03-01T14:11:38.636Z,67.35
2023-03-01T14:14:27.111Z,67.16
2023-03-01T14:16:56.494Z,67.16
2023-03-01T14:19:34.234Z,66.80
2023-03-01T14:22:08.698Z,66.63
2023-03-01T14:27:04.727Z,66.49
2023-03-01T14:29:38.450Z,66.71
2023-03-01T14:33:28.976Z,66.37
2023-03-01T14:36:01.390Z,66.73
2023-03-01T14:39:51.528Z,66.63
2023-03-01T14:42:19.171Z,66.72
2023-03-01T14:53:50.273Z,66.36
2023-03-01T14:56:21.417Z,66.94
2023-03-01T14:58:51.906Z,67.36
2023-03-01T15:01:19.342Z,67.69
2023-03-01T15:03:50.999Z,67.75
2023-03-01T15:06:23.833Z,68.01
2023-03-01T15:08:54.996Z,68.16
2023-03-01T15:11:29.293Z,68.03
2023-03-01T15:13:56.206Z,67.85
2023-03-01T15:16:31.632Z,67.87
2023-03-01T15:19:00.358Z,68.05
2023-03-01T15:21:37.283Z,67.99
2023-03-01T15:24:13.165Z,68.25
2023-03-01T15:26:44.689Z,68.54
2023-03-01T15:29:23.157Z,68.46
2023-03-01T15:32:16.639Z,68.18
2023-03-01T15:34:48.717Z,68.58
2023-03-01T15:37:39.868Z,68.78
2023-03-01T15:40:54.918Z,69.07
2023-03-01T15:43:43.853Z,69.91
2023-03-01T15:46:20.007Z,70.07
2023-03-01T15:48:47.734Z,70.51
2023-03-01T15:51:23.259Z,70.98
2023-03-01T15:53:54.590Z,70.97
2023-03-01T15:56:21.487Z,70.97
2023-03-01T15:58:48.043Z,70.70
2023-03-01T16:01:15.636Z,70.56
2023-03-01T16:03:42.704Z,70.83
2023-03-01T16:06:12.970Z,71.64
2023-03-01T16:08:39.498Z,71.94
2023-03-01T16:11:06.871Z,72.09
2023-03-01T16:13:33.449Z,72.59
2023-03-01T16:16:04.578Z,72.76
2023-03-01T16:18:31.191Z,72.95
2023-03-01T16:20:57.719Z,73.04
2023-03-01T16:23:26.015Z,72.95
2023-03-01T16:25:52.587Z,72.44
2023-03-01T16:28:19.153Z,71.74
2023-03-01T16:30:52.386Z,71.75
2023-03-01T16:33:29.423Z,71.42
2023-03-01T16:36:03.416Z,71.66
2023-03-01T16:38:30.153Z,71.76
2023-03-01T16:40:59.676Z,71.96
2023-03-01T16:43:26.971Z,72.27
2023-03-01T16:45:53.519Z,72.38
2023-03-01T16:48:20.136Z,73.20
2023-03-01T16:50:48.188Z,73.74
2023-03-01T16:53:14.880Z,73.95
2023-03-01T16:55:46.413Z,74.24
2023-03-01T16:58:13.169Z,74.36
2023-03-01T17:00:39.696Z,74.64
2023-03-01T17:03:06.180Z,74.81
2023-03-01T17:05:32.680Z,74.89
2023-03-01T17:08:00.929Z,74.87
2023-03-01T17:10:27.524Z,75.10
2023-03-01T17:12:54.826Z,75.36
2023-03-01T17:15:21.390Z,75.18
2023-03-01T17:17:51.886Z,74.87
2023-03-01T17:20:18.678Z,74.92
2023-03-01T17:22:45.236Z,75.16
2023-03-01T17:25:11.904Z,75.15
2023-03-01T17:27:41.522Z,75.30
2023-03-01T17:30:13.459Z,75.32
2023-03-01T17:32:40.484Z,75.69
2023-03-01T17:35:12.794Z,75.58
2023-03-01T17:37:39.947Z,75.90
2023-03-01T17:40:06.817Z,75.67
2023-03-01T17:42:33.512Z,75.65
2023-03-01T17:45:00.824Z,75.85
2023-03-01T17:47:28.882Z,75.70
2023-03-01T17:49:56.960Z,75.62
2023-03-01T17:52:26.629Z,75.55
2023-03-01T17:54:53.151Z,75.44
2023-03-01T17:57:19.710Z,75.74
2023-03-01T17:59:48.927Z,75.75
2023-03-01T18:02:15.537Z,76.03
2023-03-01T18:04:42.172Z,76.06
2023-03-01T18:07:08.638Z,76.04
2023-03-01T18:09:35.231Z,76.24
2023-03-01T18:12:04.734Z,76.48
2023-03-01T18:14:34.055Z,76.53
2023-03-01T18:17:03.412Z,76.50
2023-03-01T18:19:30.130Z,76.87
2023-03-01T18:21:56.927Z,76.65
2023-03-01T18:24:23.889Z,76.50
2023-03-01T18:26:50.591Z,76.85
2023-03-01T18:29:19.490Z,77.07
2023-03-01T18:31:46.283Z,77.35
2023-03-01T18:34:13.019Z,77.37
2023-03-01T18:36:41.473Z,77.24
2023-03-01T18:39:08.459Z,77.40
2023-03-01T18:41:36.025Z,77.21
2023-03-01T18:44:05.602Z,77.30
2023-03-01T18:46:34.174Z,77.30
2023-03-01T18:49:01.867Z,77.45
2023-03-01T18:51:31.972Z,77.56
2023-03-01T18:53:58.834Z,77.88
2023-03-01T18:56:25.902Z,77.99
2023-03-01T18:59:00.487Z,78.02
2023-03-01T19:01:28.600Z,78.01
2023-03-01T19:03:56.379Z,78.27
2023-03-01T19:06:23.800Z,78.37
2023-03-01T19:08:52.659Z,77.81
2023-03-01T19:11:20.265Z,78.07
2023-03-01T19:13:47.441Z,78.00
2023-03-01T19:16:18.320Z,78.20
2023-03-01T19:18:50.381Z,78.54
2023-03-01T19:21:20.743Z,78.83
2023-03-01T19:23:48.781Z,78.69
2023-03-01T19:26:21.945Z,78.81
2023-03-01T19:28:48.622Z,78.76
2023-03-01T19:31:16.858Z,78.87
2023-03-01T19:33:43.529Z,78.67
2023-03-01T19:36:12.719Z,78.49
2023-03-01T19:38:42.358Z,78.42
2023-03-01T19:41:10.660Z,78.48
2023-03-01T19:43:37.413Z,78.56
2023-03-01T19:46:04.414Z,79.01
2023-03-01T19:48:31.210Z,79.06
2023-03-01T19:50:58.801Z,79.13
2023-03-01T19:53:25.338Z,78.95
2023-03-01T19:55:58.286Z,79.25
2023-03-01T19:58:25.119Z,79.65
2023-03-01T20:00:58.521Z,79.71
2023-03-01T20:03:27.388Z,80.15
2023-03-01T20:05:54.151Z,80.11
2023-03-01T20:08:20.654Z,80.25
2023-03-01T20:10:47.277Z,80.16
2023-03-01T20:13:16.782Z,80.68
2023-03-01T20:15:44.051Z,80.85
2023-03-01T20:18:11.565Z,80.53
2023-03-01T20:20:38.632Z,80.36
2023-03-01T20:23:07.118Z,80.97
2023-03-01T20:25:36.803Z,81.21
2023-03-01T20:28:06.311Z,81.23
2023-03-01T20:30:32.809Z,80.75
2023-03-01T20:32:59.395Z,80.48
2023-03-01T20:35:25.990Z,80.48
2023-03-01T20:37:54.069Z,80.76
2023-03-01T20:40:21.503Z,80.73
2023-03-01T20:42:48.133Z,80.83
2023-03-01T20:45:14.844Z,81.07
2023-03-01T20:47:41.395Z,81.05
2023-03-01T20:50:08.072Z,81.54
2023-03-01T20:52:45.723Z,81.74
2023-03-01T20:55:13.774Z,81.37
2023-03-01T20:57:40.344Z,81.19
2023-03-01T21:00:07.226Z,81.29
2023-03-01T21:02:33.768Z,81.24
2023-03-01T21:05:01.525Z,81.29
2023-03-01T21:07:31.153Z,81.12
2023-03-01T21:10:03.523Z,81.46
2023-03-01T21:12:30.578Z,81.48
2023-03-01T21:14:57.129Z,81.76
2023-03-01T21:17:23.714Z,81.58
2023-03-01T21:19:50.793Z,81.61
2023-03-01T21:22:17.577Z,81.77
2023-03-01T21:24:44.163Z,81.80
2023-03-01T21:27:11.227Z,81.76
2023-03-01T21:29:41.403Z,81.69
2023-03-01T21:32:08.967Z,81.91
2023-03-01T21:34:39.316Z,82.31
2023-03-01T21:37:06.366Z,82.64
2023-03-01T21:39:33.180Z,82.55
2023-03-01T21:42:01.121Z,82.58
2023-03-01T21:44:29.239Z,82.51
2023-03-01T21:46:56.107Z,82.52
2023-03-01T21:49:24.556Z,82.74
2023-03-01T21:51:51.126Z,83.30
2023-03-01T21:54:19.682Z,83.44
2023-03-01T21:56:47.196Z,84.08
2023-03-01T21:59:15.541Z,84.56
2023-03-01T22:01:42.372Z,84.44
2023-03-01T22:04:09.020Z,84.60
2023-03-01T22:06:40.680Z,84.29
2023-03-01T22:09:09.200Z,84.46
2023-03-01T22:11:37.358Z,84.76
2023-03-01T22:14:04.912Z,84.63
2023-03-01T22:16:33.037Z,84.97
2023-03-01T22:18:59.778Z,84.90
2023-03-01T22:21:34.603Z,84.99
2023-03-01T22:24:04.475Z,85.11
2023-03-01T22:26:42.245Z,84.64
2023-03-01T22:29:13.866Z,84.59
2023-03-01T22:31:41.280Z,84.77
2023-03-01T22:34:08.137Z,84.53
2023-03-01T22:36:37.395Z,84.64
2023-03-01T22:39:04.418Z,84.35
2023-03-01T22:41:38.551Z,84.19
2023-03-01T22:44:05.128Z,84.27
2023-03-01T22:46:32.169Z,83.97
2023-03-01T22:48:58.915Z,83.92
2023-03-01T22:51:27.047Z,84.39
2023-03-01T22:53:53.970Z,84.01
2023-03-01T22:56:22.159Z,84.06
2023-03-01T22:58:49.031Z,84.55
2023-03-01T23:01:17.119Z,84.21
2023-03-01T23:03:43.730Z,84.19
2023-03-01T23:06:10.945Z,84.30
2023-03-01T23:08:37.499Z,84.52
2023-03-01T23:11:07.593Z,84.35
2023-03-01T23:13:34.125Z,84.20
2023-03-01T23:16:00.746Z,84.02
2023-03-01T23:18:27.354Z,84.35
2023-03-01T23:20:53.930Z,84.48
2023-03-01T23:23:20.416Z,84.31
2023-03-01T23:26:02.068Z,84.31
2023-03-01T23:28:29.885Z,84.50
2023-03-01T23:30:57.690Z,84.46
2023-03-01T23:33:24.841Z,84.51
2023-03-01T23:35:52.783Z,84.86
2023-03-01T23:38:20.650Z,85.13
2023-03-01T23:40:47.615Z,85.23
2023-03-01T23:43:14.452Z,85.23
2023-03-01T23:45:43.889Z,85.44
2023-03-01T23:48:13.677Z,85.79
2023-03-01T23:50:44.182Z,85.79
2023-03-01T23:53:16.963Z,85.49
2023-03-01T23:55:51.278Z,85.02
2023-03-01T23:58:20.101Z,85.13
